createdAt,value
2022-08-22T00:00:03.354Z,68.31
2022-08-22T00:01:03.485Z,68.32
2022-08-22T00:02:03.653Z,68.56
2022-08-22T00:02:54.939Z,64.32
2022-08-22T00:03:03.566Z,57.20
2022-08-22T00:03:03.866Z,56.61
2022-08-22T00:04:04.954Z,68.66
2022-08-22T00:05:03.924Z,68.76
2022-08-22T00:06:04.081Z,68.89
2022-08-22T00:07:04.234Z,68.85
2022-08-22T00:08:04.338Z,69.06
2022-08-22T00:09:04.613Z,69.19
2022-08-22T00:10:04.696Z,69.24
2022-08-22T00:11:04.715Z,69.45
2022-08-22T00:12:04.812Z,69.42
2022-08-22T00:13:04.912Z,69.36
2022-08-22T00:14:05.211Z,69.41
2022-08-22T00:15:05.224Z,69.33
2022-08-22T00:16:05.252Z,69.48
2022-08-22T00:17:05.361Z,69.52
2022-08-22T00:18:05.611Z,69.47
2022-08-22T00:19:05.732Z,69.73
2022-08-22T00:20:05.722Z,69.90
2022-08-22T00:21:05.819Z,69.99
2022-08-22T00:22:05.932Z,69.98
2022-08-22T00:23:06.053Z,70.12
2022-08-22T00:24:06.310Z,70.31
2022-08-22T00:25:06.390Z,70.36
2022-08-22T00:26:07.390Z,70.48
2022-08-22T00:27:06.481Z,70.52
2022-08-22T00:28:06.589Z,70.61
2022-08-22T00:29:06.820Z,70.68
2022-08-22T00:30:07.546Z,70.73
2022-08-22T00:31:06.939Z,70.75
2022-08-22T00:32:07.037Z,70.80
2022-08-22T00:33:07.139Z,70.94
2022-08-22T00:34:08.288Z,70.99
2022-08-22T00:35:07.444Z,71.24
2022-08-22T00:36:07.569Z,71.32
2022-08-22T00:37:07.718Z,71.42
2022-08-22T00:38:07.778Z,71.55
2022-08-22T00:39:08.019Z,71.60
2022-08-22T00:40:08.181Z,71.69
2022-08-22T00:41:08.177Z,71.81
2022-08-22T00:42:08.269Z,71.95
2022-08-22T00:43:08.527Z,72.18
2022-08-22T00:44:08.516Z,72.29
2022-08-22T00:45:08.676Z,72.40
2022-08-22T00:46:08.766Z,72.49
2022-08-22T00:47:08.874Z,72.54
2022-08-22T00:48:09.236Z,72.60
2022-08-22T00:49:10.244Z,72.67
2022-08-22T00:50:09.221Z,72.71
2022-08-22T00:51:09.376Z,72.65
2022-08-22T00:52:09.486Z,72.83
2022-08-22T00:53:09.586Z,72.91
2022-08-22T00:54:16.858Z,72.84
2022-08-22T00:55:10.816Z,72.95
2022-08-22T00:56:09.955Z,72.96
2022-08-22T00:57:10.109Z,73.06
2022-08-22T00:58:10.204Z,73.17
2022-08-22T00:59:23.283Z,73.32
2022-08-22T01:00:11.564Z,73.44
2022-08-22T01:01:10.607Z,73.46
2022-08-22T01:02:10.684Z,73.39
2022-08-22T01:03:10.829Z,73.48
2022-08-22T01:04:11.004Z,73.48
2022-08-22T01:05:11.141Z,73.60
2022-08-22T01:06:11.235Z,73.73
2022-08-22T01:07:11.353Z,73.85
2022-08-22T01:08:11.463Z,73.90
2022-08-22T01:09:11.664Z,74.04
2022-08-22T01:10:11.742Z,74.09
2022-08-22T01:11:11.833Z,74.20
2022-08-22T01:12:12.081Z,74.41
2022-08-22T01:13:12.061Z,74.64
2022-08-22T01:14:12.207Z,74.95
2022-08-22T01:15:12.302Z,75.10
2022-08-22T01:16:12.411Z,75.15
2022-08-22T01:17:12.549Z,75.31
2022-08-22T01:18:12.639Z,75.38
2022-08-22T01:19:12.748Z,75.34
2022-08-22T01:20:12.832Z,75.21
2022-08-22T01:21:12.975Z,75.23
2022-08-22T01:22:13.108Z,75.24
2022-08-22T01:23:13.261Z,75.41
2022-08-22T01:24:13.309Z,75.48
2022-08-22T01:25:13.419Z,75.39
2022-08-22T01:26:13.525Z,75.53
2022-08-22T01:27:13.660Z,75.59
2022-08-22T01:28:13.909Z,75.73
2022-08-22T01:29:13.859Z,75.65
2022-08-22T01:30:13.976Z,75.61
2022-08-22T01:31:14.139Z,75.69
2022-08-22T01:32:14.242Z,75.75
2022-08-22T01:33:14.417Z,75.74
2022-08-22T01:34:14.468Z,75.81
2022-08-22T01:35:14.568Z,75.92
2022-08-22T01:36:14.681Z,75.97
2022-08-22T01:37:14.775Z,76.02
2022-08-22T01:38:14.977Z,76.01
2022-08-22T01:39:15.168Z,76.05
2022-08-22T01:40:15.206Z,76.04
2022-08-22T01:41:15.267Z,76.02
2022-08-22T01:42:15.381Z,75.99
2022-08-22T01:43:15.550Z,75.90
2022-08-22T01:44:15.733Z,75.84
2022-08-22T01:45:15.787Z,75.80
2022-08-22T01:46:20.684Z,75.73
2022-08-22T01:47:16.997Z,75.72
2022-08-22T01:48:16.105Z,75.74
2022-08-22T01:49:16.336Z,75.66
2022-08-22T01:50:16.463Z,75.56
2022-08-22T01:51:16.459Z,75.61
2022-08-22T01:52:19.485Z,75.47
2022-08-22T01:53:16.675Z,75.51
2022-08-22T01:54:16.833Z,75.63
2022-08-22T01:55:17.128Z,75.63
2022-08-22T01:56:17.016Z,75.75
2022-08-22T01:57:17.114Z,75.73
2022-08-22T01:58:17.234Z,75.77
2022-08-22T01:59:17.595Z,75.85
2022-08-22T02:00:17.564Z,75.90
2022-08-22T02:01:17.609Z,75.77
2022-08-22T02:02:17.672Z,75.79
2022-08-22T02:03:17.803Z,75.87
2022-08-22T02:04:18.093Z,75.73
2022-08-22T02:05:18.233Z,75.70
2022-08-22T02:06:18.241Z,75.68
2022-08-22T02:07:18.321Z,75.70
2022-08-22T02:08:18.473Z,75.68
2022-08-22T02:09:18.593Z,75.63
2022-08-22T02:10:18.821Z,75.51
2022-08-22T02:11:18.805Z,75.39
2022-08-22T02:12:21.753Z,75.38
2022-08-22T02:13:19.041Z,75.46
2022-08-22T02:14:19.233Z,75.48
2022-08-22T02:15:19.501Z,75.52
2022-08-22T02:16:19.439Z,75.53
2022-08-22T02:17:19.548Z,75.59
2022-08-22T02:18:19.662Z,75.50
2022-08-22T02:19:19.743Z,75.48
2022-08-22T02:20:20.271Z,75.43
2022-08-22T02:21:20.017Z,75.40
2022-08-22T02:22:20.149Z,75.41
2022-08-22T02:23:20.304Z,75.28
2022-08-22T02:24:20.429Z,75.19
2022-08-22T02:25:20.748Z,75.22
2022-08-22T02:26:20.682Z,75.25
2022-08-22T02:27:20.818Z,75.01
2022-08-22T02:28:20.948Z,74.94
2022-08-22T02:29:21.087Z,74.88
2022-08-22T02:30:21.548Z,74.80
2022-08-22T02:31:21.389Z,74.78
2022-08-22T02:32:21.477Z,74.73
2022-08-22T02:33:21.638Z,74.72
2022-08-22T02:34:21.750Z,74.77
2022-08-22T02:35:21.987Z,74.71
2022-08-22T02:36:22.129Z,74.75
2022-08-22T02:37:22.106Z,74.70
2022-08-22T02:38:22.246Z,74.71
2022-08-22T02:39:22.386Z,74.68
2022-08-22T02:40:22.794Z,74.79
2022-08-22T02:41:22.643Z,74.74
2022-08-22T02:42:22.847Z,74.74
2022-08-22T02:43:22.842Z,74.82
2022-08-22T02:44:22.986Z,74.85
2022-08-22T02:45:23.244Z,74.87
2022-08-22T02:46:23.181Z,74.97
2022-08-22T02:47:23.306Z,74.86
2022-08-22T02:48:23.517Z,74.99
2022-08-22T02:49:23.596Z,74.96
2022-08-22T02:50:23.708Z,74.94
2022-08-22T02:51:23.807Z,74.81
2022-08-22T02:52:23.964Z,74.75
2022-08-22T02:53:24.303Z,74.71
2022-08-22T02:54:24.185Z,74.88
2022-08-22T02:55:24.284Z,74.83
2022-08-22T02:56:24.443Z,74.74
2022-08-22T02:57:24.668Z,74.72
2022-08-22T02:58:24.651Z,74.97
2022-08-22T02:59:24.902Z,74.83
2022-08-22T03:00:30.779Z,75.18
2022-08-22T03:01:26.072Z,75.05
2022-08-22T03:02:25.214Z,75.07
2022-08-22T03:03:25.421Z,75.14
2022-08-22T03:04:25.405Z,75.09
2022-08-22T03:05:25.532Z,75.06
2022-08-22T03:06:25.671Z,75.08
2022-08-22T03:07:25.824Z,75.12
2022-08-22T03:08:26.142Z,75.25
2022-08-22T03:09:26.241Z,75.15
2022-08-22T03:10:26.171Z,75.16
2022-08-22T03:11:26.320Z,75.17
2022-08-22T03:12:26.410Z,75.24
2022-08-22T03:13:26.620Z,75.21
2022-08-22T03:14:26.720Z,75.14
2022-08-22T03:15:27.011Z,75.17
2022-08-22T03:16:26.938Z,75.38
2022-08-22T03:17:27.060Z,75.43
2022-08-22T03:18:27.320Z,75.44
2022-08-22T03:19:27.338Z,75.66
2022-08-22T03:20:27.479Z,75.89
2022-08-22T03:21:27.618Z,75.64
2022-08-22T03:22:27.749Z,75.61
2022-08-22T03:23:28.126Z,75.72
2022-08-22T03:24:27.998Z,75.89
2022-08-22T03:25:28.140Z,76.04
2022-08-22T03:26:28.319Z,76.14
2022-08-22T03:27:33.269Z,76.30
2022-08-22T03:28:29.618Z,76.48
2022-08-22T03:29:28.649Z,76.56
2022-08-22T03:30:28.787Z,76.76
2022-08-22T03:31:28.947Z,77.25
2022-08-22T03:32:29.027Z,77.24
2022-08-22T03:33:29.167Z,77.16
2022-08-22T03:34:30.816Z,76.96
2022-08-22T03:35:29.436Z,76.93
2022-08-22T03:36:29.576Z,76.90
2022-08-22T03:37:29.715Z,76.67
2022-08-22T03:38:29.867Z,76.52
2022-08-22T03:39:30.027Z,76.54
2022-08-22T03:40:31.914Z,76.57
2022-08-22T03:41:30.265Z,76.69
2022-08-22T03:42:30.414Z,76.93
2022-08-22T03:43:30.505Z,77.22
2022-08-22T03:44:30.824Z,77.24
2022-08-22T03:45:30.775Z,77.40
2022-08-22T03:46:30.924Z,77.51
2022-08-22T03:47:31.054Z,77.57
2022-08-22T03:48:31.193Z,77.56
2022-08-22T03:49:31.494Z,77.65
2022-08-22T03:50:31.595Z,77.69
2022-08-22T03:51:31.593Z,77.79
2022-08-22T03:52:31.731Z,77.92
2022-08-22T03:53:31.873Z,78.09
2022-08-22T03:54:32.122Z,78.25
2022-08-22T03:55:32.190Z,78.37
2022-08-22T03:56:32.292Z,78.47
2022-08-22T03:57:32.438Z,78.46
2022-08-22T03:58:32.585Z,78.46
2022-08-22T03:59:32.891Z,78.56
2022-08-22T04:00:32.908Z,78.68
2022-08-22T04:01:33.162Z,78.74
2022-08-22T04:02:42.845Z,78.78
2022-08-22T04:03:34.251Z,78.93
2022-08-22T04:04:33.377Z,78.99
2022-08-22T04:05:33.560Z,79.09
2022-08-22T04:06:33.671Z,79.15
2022-08-22T04:07:33.781Z,79.12
2022-08-22T04:08:33.910Z,79.11
2022-08-22T04:09:34.059Z,79.03
2022-08-22T04:10:34.219Z,78.97
2022-08-22T04:11:34.369Z,78.89
2022-08-22T04:12:34.442Z,78.76
2022-08-22T04:13:34.587Z,78.66
2022-08-22T04:14:37.719Z,78.68
2022-08-22T04:15:35.100Z,78.67
2022-08-22T04:16:34.979Z,78.77
2022-08-22T04:17:35.122Z,78.75
2022-08-22T04:18:35.247Z,78.55
2022-08-22T04:19:35.381Z,78.47
2022-08-22T04:20:35.579Z,78.44
2022-08-22T04:21:35.665Z,78.52
2022-08-22T04:22:35.787Z,78.77
2022-08-22T04:23:35.934Z,79.07
2022-08-22T04:24:36.076Z,79.38
2022-08-22T04:25:36.366Z,79.51
2022-08-22T04:26:36.456Z,79.55
2022-08-22T04:27:36.494Z,79.45
2022-08-22T04:28:36.649Z,79.34
2022-08-22T04:29:36.786Z,79.29
2022-08-22T04:30:37.026Z,79.19
2022-08-22T04:31:37.125Z,79.18
2022-08-22T04:32:37.115Z,79.12
2022-08-22T04:33:37.262Z,79.16
2022-08-22T04:34:37.386Z,79.26
2022-08-22T04:35:37.675Z,79.30
2022-08-22T04:36:37.655Z,79.31
2022-08-22T04:37:37.779Z,79.26
2022-08-22T04:38:37.925Z,79.32
2022-08-22T04:39:38.125Z,79.41
2022-08-22T04:40:38.212Z,79.54
2022-08-22T04:41:38.317Z,79.60
2022-08-22T04:42:38.463Z,79.61
2022-08-22T04:43:38.586Z,79.64
2022-08-22T04:44:38.722Z,79.73
2022-08-22T04:45:39.022Z,79.79
2022-08-22T04:46:39.033Z,79.89
2022-08-22T04:47:39.113Z,80.00
2022-08-22T04:48:39.243Z,80.07
2022-08-22T04:49:39.442Z,80.14
2022-08-22T04:50:43.017Z,80.22
2022-08-22T04:51:39.649Z,80.34
2022-08-22T04:52:39.799Z,80.44
2022-08-22T04:53:39.932Z,80.51
2022-08-22T04:54:40.060Z,80.57
2022-08-22T04:55:40.332Z,80.69
2022-08-22T04:56:40.319Z,80.85
2022-08-22T04:57:40.462Z,80.95
2022-08-22T04:58:40.593Z,81.09
2022-08-22T04:59:40.731Z,81.29
2022-08-22T05:00:40.943Z,81.55
2022-08-22T05:01:41.036Z,81.60
2022-08-22T05:02:41.186Z,81.72
2022-08-22T05:03:44.816Z,81.91
2022-08-22T05:04:41.379Z,82.04
2022-08-22T05:05:41.672Z,82.02
2022-08-22T05:06:41.669Z,81.96
2022-08-22T05:07:41.779Z,81.88
2022-08-22T05:08:41.918Z,81.76
2022-08-22T05:09:42.068Z,81.60
2022-08-22T05:10:42.328Z,81.48
2022-08-22T05:11:42.337Z,81.40
2022-08-22T05:12:42.597Z,81.35
2022-08-22T05:13:42.577Z,81.27
2022-08-22T05:14:42.729Z,81.24
2022-08-22T05:15:42.867Z,81.33
2022-08-22T05:16:42.986Z,81.34
2022-08-22T05:17:43.238Z,81.12
2022-08-22T05:18:43.435Z,81.17
2022-08-22T05:19:43.428Z,81.15
2022-08-22T05:20:43.515Z,81.01
2022-08-22T05:21:43.670Z,80.92
2022-08-22T05:22:43.835Z,80.87
2022-08-22T05:23:43.936Z,81.03
2022-08-22T05:24:44.035Z,81.08
2022-08-22T05:25:44.116Z,81.15
2022-08-22T05:26:44.283Z,81.15
2022-08-22T05:27:44.502Z,81.09
2022-08-22T05:28:44.504Z,81.01
2022-08-22T05:29:44.640Z,81.09
2022-08-22T05:30:44.755Z,81.31
2022-08-22T05:31:44.812Z,81.63
2022-08-22T05:32:44.995Z,81.81
2022-08-22T05:33:45.073Z,81.99
2022-08-22T05:34:45.151Z,82.12
2022-08-22T05:35:49.576Z,82.21
2022-08-22T05:36:46.424Z,82.32
2022-08-22T05:37:45.619Z,82.30
2022-08-22T05:38:45.732Z,82.28
2022-08-22T05:39:45.807Z,82.21
2022-08-22T05:40:45.900Z,82.15
2022-08-22T05:41:46.031Z,82.05
2022-08-22T05:42:46.783Z,81.97
2022-08-22T05:43:46.453Z,81.93
2022-08-22T05:44:46.500Z,81.91
2022-08-22T05:45:46.559Z,81.97
2022-08-22T05:46:46.670Z,82.49
2022-08-22T05:47:46.780Z,82.53
2022-08-22T05:48:46.881Z,81.66
2022-08-22T05:49:47.140Z,81.27
2022-08-22T05:50:50.465Z,80.96
2022-08-22T05:51:47.269Z,79.28
2022-08-22T05:52:47.379Z,78.81
2022-08-22T05:53:47.450Z,78.43
2022-08-22T05:54:47.629Z,78.44
2022-08-22T05:55:47.678Z,77.90
2022-08-22T05:56:47.789Z,77.82
2022-08-22T05:57:47.871Z,77.67
2022-08-22T05:58:48.036Z,77.54
2022-08-22T05:59:48.267Z,77.55
2022-08-22T06:00:48.369Z,77.68
2022-08-22T06:01:48.405Z,77.64
2022-08-22T06:02:48.558Z,77.72
2022-08-22T06:03:48.596Z,77.78
2022-08-22T06:04:48.734Z,77.98
2022-08-22T06:05:48.996Z,78.26
2022-08-22T06:06:48.985Z,78.41
2022-08-22T06:07:49.136Z,76.74
2022-08-22T06:08:49.227Z,76.26
2022-08-22T06:09:49.376Z,75.62
2022-08-22T06:10:49.626Z,76.73
2022-08-22T06:11:52.041Z,77.55
2022-08-22T06:12:49.732Z,75.34
2022-08-22T06:13:49.836Z,74.20
2022-08-22T06:14:49.945Z,74.35
2022-08-22T06:15:50.164Z,74.25
2022-08-22T06:16:50.140Z,72.88
2022-08-22T06:17:50.271Z,72.57
2022-08-22T06:18:50.357Z,72.78
2022-08-22T06:19:50.502Z,70.06
2022-08-22T06:20:50.737Z,72.50
2022-08-22T06:21:50.793Z,70.02
2022-08-22T06:22:50.876Z,67.98
2022-08-22T06:23:51.024Z,68.32
2022-08-22T06:24:51.104Z,68.94
2022-08-22T06:25:51.387Z,69.76
2022-08-22T06:26:51.395Z,69.63
2022-08-22T06:27:51.484Z,68.21
2022-08-22T06:28:55.630Z,67.40
2022-08-22T06:29:51.775Z,67.12
2022-08-22T06:30:52.043Z,66.44
2022-08-22T06:31:52.021Z,66.60
2022-08-22T06:32:59.909Z,66.66
2022-08-22T06:33:53.294Z,66.98
2022-08-22T06:34:52.412Z,66.29
2022-08-22T06:35:52.665Z,66.65
2022-08-22T06:36:52.609Z,67.55
2022-08-22T06:37:52.791Z,67.07
2022-08-22T06:38:52.849Z,66.22
2022-08-22T06:39:53.017Z,66.48
2022-08-22T06:40:53.169Z,67.22
2022-08-22T06:41:53.312Z,67.90
2022-08-22T06:42:53.302Z,68.17
2022-08-22T06:43:53.452Z,68.62
2022-08-22T06:44:53.605Z,68.91
2022-08-22T06:45:53.764Z,69.65
2022-08-22T06:46:54.018Z,69.24
2022-08-22T06:47:54.549Z,69.70
2022-08-22T06:48:54.091Z,69.13
2022-08-22T06:49:54.181Z,69.51
2022-08-22T06:50:54.320Z,70.16
2022-08-22T06:51:54.691Z,69.33
2022-08-22T06:52:54.581Z,69.48
2022-08-22T06:53:54.692Z,69.43
2022-08-22T06:54:54.843Z,69.75
2022-08-22T06:55:54.941Z,69.59
2022-08-22T06:56:55.221Z,69.03
2022-08-22T06:57:55.327Z,69.17
2022-08-22T06:58:55.323Z,68.37
2022-08-22T06:59:55.430Z,68.39
2022-08-22T07:01:05.670Z,69.18
2022-08-22T07:01:56.744Z,67.70
2022-08-22T07:02:55.839Z,68.43
2022-08-22T07:03:55.940Z,68.22
2022-08-22T07:04:56.099Z,67.72
2022-08-22T07:05:56.254Z,67.35
2022-08-22T07:06:56.358Z,67.03
2022-08-22T07:07:56.509Z,67.07
2022-08-22T07:08:56.564Z,67.41
2022-08-22T07:09:56.689Z,68.03
2022-08-22T07:10:56.791Z,67.73
2022-08-22T07:11:56.899Z,67.50
2022-08-22T07:12:57.067Z,68.19
2022-08-22T07:13:57.200Z,67.86
2022-08-22T07:14:57.237Z,69.29
2022-08-22T07:15:57.348Z,69.72
2022-08-22T07:16:57.458Z,70.22
2022-08-22T07:17:57.823Z,69.44
2022-08-22T07:18:57.728Z,69.46
2022-08-22T07:19:57.858Z,70.22
2022-08-22T07:20:57.988Z,70.11
2022-08-22T07:21:58.117Z,70.01
2022-08-22T07:22:58.337Z,70.28
2022-08-22T07:23:58.394Z,70.95
2022-08-22T07:24:58.417Z,71.61
2022-08-22T07:25:58.565Z,71.61
2022-08-22T07:26:58.727Z,71.49
2022-08-22T07:27:59.003Z,71.09
2022-08-22T07:28:58.948Z,70.45
2022-08-22T07:29:59.029Z,69.12
2022-08-22T07:30:59.341Z,68.90
2022-08-22T07:31:59.286Z,69.10
2022-08-22T07:33:20.975Z,70.58
2022-08-22T07:34:00.549Z,70.50
2022-08-22T07:34:59.639Z,69.72
2022-08-22T07:35:59.846Z,68.76
2022-08-22T07:36:59.950Z,69.34
2022-08-22T07:38:00.337Z,69.41
2022-08-22T07:39:00.125Z,70.19
2022-08-22T07:40:00.333Z,70.49
2022-08-22T07:41:00.436Z,70.53
2022-08-22T07:42:00.485Z,70.48
2022-08-22T07:43:00.574Z,69.01
2022-08-22T07:44:00.725Z,70.45
2022-08-22T07:45:00.866Z,69.15
2022-08-22T07:46:01.113Z,68.31
2022-08-22T07:47:01.103Z,68.22
2022-08-22T07:48:01.436Z,68.48
2022-08-22T07:49:09.824Z,68.03
2022-08-22T07:50:02.559Z,67.63
2022-08-22T07:51:01.822Z,68.15
2022-08-22T07:52:01.784Z,67.43
2022-08-22T07:53:01.935Z,67.74
2022-08-22T07:54:02.047Z,67.73
2022-08-22T07:55:02.153Z,67.30
2022-08-22T07:56:02.294Z,67.87
2022-08-22T07:57:02.394Z,67.32
2022-08-22T07:58:04.020Z,66.85
2022-08-22T07:59:04.823Z,67.01
2022-08-22T08:00:03.723Z,67.16
2022-08-22T08:01:02.929Z,67.10
2022-08-22T08:02:03.002Z,67.36
2022-08-22T08:03:03.171Z,67.35
2022-08-22T08:04:03.292Z,67.67
2022-08-22T08:05:03.335Z,67.21
2022-08-22T08:06:03.451Z,67.58
2022-08-22T08:07:03.583Z,67.91
2022-08-22T08:08:03.720Z,67.66
2022-08-22T08:09:03.832Z,67.47
2022-08-22T08:10:03.950Z,67.73
2022-08-22T08:11:04.052Z,67.39
2022-08-22T08:12:04.177Z,66.69
2022-08-22T08:13:04.375Z,67.70
2022-08-22T08:14:04.381Z,67.81
2022-08-22T08:15:04.505Z,67.07
2022-08-22T08:16:04.592Z,67.44
2022-08-22T08:17:04.758Z,67.13
2022-08-22T08:18:04.911Z,67.21
2022-08-22T08:19:05.032Z,67.29
2022-08-22T08:20:05.086Z,67.01
2022-08-22T08:21:05.191Z,67.31
2022-08-22T08:22:05.330Z,66.46
2022-08-22T08:23:05.431Z,66.19
2022-08-22T08:24:05.649Z,66.40
2022-08-22T08:25:05.740Z,66.33
2022-08-22T08:26:05.799Z,66.69
2022-08-22T08:27:05.892Z,66.89
2022-08-22T08:28:05.990Z,66.27
2022-08-22T08:29:06.231Z,66.23
2022-08-22T08:30:06.279Z,66.21
2022-08-22T08:31:06.400Z,66.36
2022-08-22T08:32:06.520Z,66.72
2022-08-22T08:33:24.278Z,66.46
2022-08-22T08:34:07.850Z,66.18
2022-08-22T08:35:06.861Z,66.70
2022-08-22T08:36:06.960Z,65.26
2022-08-22T08:37:07.059Z,65.12
2022-08-22T08:38:07.163Z,64.44
2022-08-22T08:39:07.469Z,64.81
2022-08-22T08:40:07.473Z,64.61
2022-08-22T08:41:07.578Z,65.35
2022-08-22T08:42:07.676Z,66.31
2022-08-22T08:43:10.760Z,64.97
2022-08-22T08:44:07.938Z,65.28
2022-08-22T08:45:07.967Z,65.53
2022-08-22T08:46:08.117Z,65.77
2022-08-22T08:47:08.227Z,66.03
2022-08-22T08:48:08.317Z,65.34
2022-08-22T08:49:08.707Z,64.70
2022-08-22T08:50:09.576Z,65.70
2022-08-22T08:51:09.267Z,64.55
2022-08-22T08:52:08.839Z,64.86
2022-08-22T08:53:08.958Z,64.94
2022-08-22T08:54:09.218Z,65.21
2022-08-22T08:56:10.839Z,65.19
2022-08-22T08:57:09.467Z,65.10
2022-08-22T08:58:10.395Z,64.65
2022-08-22T08:59:10.211Z,63.09
2022-08-22T09:00:10.075Z,63.25
2022-08-22T09:01:09.995Z,63.63
2022-08-22T09:02:13.865Z,64.00
2022-08-22T09:03:11.207Z,64.13
2022-08-22T09:04:15.319Z,63.93
2022-08-22T09:05:11.534Z,62.92
2022-08-22T09:06:10.615Z,62.57
2022-08-22T09:07:10.675Z,63.07
2022-08-22T09:08:11.885Z,63.32
2022-08-22T09:09:10.903Z,63.35
2022-08-22T09:10:11.064Z,62.65
2022-08-22T09:11:12.071Z,61.37
2022-08-22T09:12:11.215Z,61.50
2022-08-22T09:13:12.745Z,63.81
2022-08-22T09:14:11.455Z,60.91
2022-08-22T09:15:14.352Z,61.77
2022-08-22T09:16:11.655Z,60.81
2022-08-22T09:17:11.802Z,60.05
2022-08-22T09:18:11.960Z,60.70
2022-08-22T09:19:12.026Z,59.80
2022-08-22T09:20:15.420Z,59.24
2022-08-22T09:21:13.293Z,58.88
2022-08-22T09:22:14.352Z,59.85
2022-08-22T09:23:12.565Z,59.88
2022-08-22T09:24:12.663Z,60.44
2022-08-22T09:25:12.992Z,62.65
2022-08-22T09:26:12.997Z,61.27
2022-08-22T09:27:13.051Z,60.34
2022-08-22T09:28:13.669Z,60.48
2022-08-22T09:29:13.293Z,60.11
2022-08-22T09:30:13.713Z,59.29
2022-08-22T09:31:16.820Z,57.93
2022-08-22T09:32:14.694Z,58.03
2022-08-22T09:33:13.832Z,58.48
2022-08-22T09:34:13.952Z,59.82
2022-08-22T09:35:15.223Z,56.70
2022-08-22T09:36:14.372Z,55.82
2022-08-22T09:37:14.439Z,56.36
2022-08-22T09:38:14.484Z,56.39
2022-08-22T09:39:14.594Z,58.36
2022-08-22T09:40:17.600Z,58.98
2022-08-22T09:41:16.001Z,58.94
2022-08-22T09:42:14.990Z,57.81
2022-08-22T09:43:21.282Z,57.18
2022-08-22T09:44:16.243Z,57.36
2022-08-22T09:45:15.382Z,57.88
2022-08-22T09:46:15.764Z,59.89
2022-08-22T09:47:15.611Z,57.57
2022-08-22T09:48:16.731Z,57.57
2022-08-22T09:49:16.446Z,56.55
2022-08-22T09:50:17.170Z,56.68
2022-08-22T09:51:33.155Z,56.87
2022-08-22T09:52:34.110Z,56.40
2022-08-22T09:53:17.342Z,56.82
2022-08-22T09:54:16.472Z,57.46
2022-08-22T09:55:16.907Z,56.98
2022-08-22T09:56:16.704Z,56.31
2022-08-22T09:57:17.012Z,56.16
2022-08-22T09:58:16.960Z,54.90
2022-08-22T09:59:17.051Z,54.63
2022-08-22T10:00:17.160Z,55.60
2022-08-22T10:01:18.392Z,55.97
2022-08-22T10:02:17.420Z,55.13
2022-08-22T10:03:17.521Z,56.30
2022-08-22T10:04:19.304Z,54.17
2022-08-22T10:05:40.379Z,54.37
2022-08-22T10:06:18.951Z,55.33
2022-08-22T10:07:17.983Z,55.15
2022-08-22T10:08:19.959Z,52.87
2022-08-22T10:09:18.221Z,53.86
2022-08-22T10:10:21.504Z,54.93
2022-08-22T10:11:18.470Z,53.88
2022-08-22T10:12:18.738Z,55.93
2022-08-22T10:13:19.724Z,53.19
2022-08-22T10:14:22.366Z,52.50
2022-08-22T10:15:18.969Z,53.17
2022-08-22T10:16:19.047Z,53.56
2022-08-22T10:17:21.738Z,53.76
2022-08-22T10:18:19.360Z,53.38
2022-08-22T10:19:19.389Z,53.18
2022-08-22T10:20:19.570Z,52.32
2022-08-22T10:21:19.630Z,52.41
2022-08-22T10:22:19.908Z,51.39
2022-08-22T10:23:20.961Z,51.48
2022-08-22T10:24:25.513Z,52.13
2022-08-22T10:25:21.160Z,51.67
2022-08-22T10:26:22.613Z,50.77
2022-08-22T10:27:20.418Z,50.54
2022-08-22T10:28:20.678Z,50.06
2022-08-22T10:29:20.639Z,50.95
2022-08-22T10:30:20.758Z,49.67
2022-08-22T10:31:20.887Z,50.67
2022-08-22T10:32:21.008Z,51.26
2022-08-22T10:33:22.992Z,50.60
2022-08-22T10:34:21.250Z,48.79
2022-08-22T10:35:21.389Z,49.65
2022-08-22T10:36:21.519Z,49.88
2022-08-22T10:37:23.777Z,49.19
2022-08-22T10:38:21.817Z,48.94
2022-08-22T10:39:22.285Z,50.62
2022-08-22T10:40:22.137Z,49.74
2022-08-22T10:41:22.516Z,47.95
2022-08-22T10:42:23.280Z,48.75
2022-08-22T10:43:28.955Z,48.91
2022-08-22T10:44:23.698Z,48.73
2022-08-22T10:45:23.897Z,49.55
2022-08-22T10:46:23.804Z,46.57
2022-08-22T10:47:22.937Z,47.12
2022-08-22T10:48:23.038Z,47.76
2022-08-22T10:49:23.207Z,48.00
2022-08-22T10:50:24.388Z,49.94
2022-08-22T10:51:24.433Z,51.44
2022-08-22T10:52:23.518Z,49.86
2022-08-22T10:53:28.407Z,47.45
2022-08-22T10:54:24.732Z,49.84
2022-08-22T10:55:24.614Z,48.70
2022-08-22T10:56:24.045Z,47.46
2022-08-22T10:57:24.105Z,46.40
2022-08-22T10:58:24.197Z,48.39
2022-08-22T10:59:24.347Z,47.05
2022-08-22T11:00:25.616Z,47.93
2022-08-22T11:01:38.447Z,47.36
2022-08-22T11:02:25.767Z,46.11
2022-08-22T11:03:25.042Z,47.65
2022-08-22T11:04:28.208Z,46.64
2022-08-22T11:05:25.136Z,46.10
2022-08-22T11:06:25.487Z,46.57
2022-08-22T11:07:25.368Z,47.61
2022-08-22T11:08:25.557Z,46.88
2022-08-22T11:09:25.624Z,47.81
2022-08-22T11:10:25.750Z,47.15
2022-08-22T11:11:25.927Z,47.17
2022-08-22T11:12:34.523Z,49.51
2022-08-22T11:13:27.096Z,49.04
2022-08-22T11:14:26.218Z,47.75
2022-08-22T11:15:34.702Z,46.63
2022-08-22T11:16:27.647Z,46.43
2022-08-22T11:17:30.292Z,47.34
2022-08-22T11:18:27.736Z,46.45
2022-08-22T11:19:26.896Z,47.85
2022-08-22T11:20:26.986Z,47.77
2022-08-22T11:21:27.087Z,47.96
2022-08-22T11:22:27.354Z,46.49
2022-08-22T11:23:27.385Z,46.83
2022-08-22T11:24:34.598Z,45.41
2022-08-22T11:25:36.231Z,44.70
2022-08-22T11:26:29.298Z,45.19
2022-08-22T11:27:34.510Z,45.12
2022-08-22T11:28:28.981Z,43.66
2022-08-22T11:29:28.445Z,43.57
2022-08-22T11:30:28.236Z,44.77
2022-08-22T11:31:28.368Z,44.20
2022-08-22T11:32:28.514Z,44.56
2022-08-22T11:33:46.762Z,45.61
2022-08-22T11:34:29.666Z,46.60
2022-08-22T11:35:28.838Z,45.13
2022-08-22T11:36:30.959Z,46.75
2022-08-22T11:37:42.701Z,48.63
2022-08-22T11:38:32.730Z,45.68
2022-08-22T11:39:29.316Z,45.59
2022-08-22T11:40:29.593Z,45.60
2022-08-22T11:41:29.524Z,45.16
2022-08-22T11:42:29.804Z,44.94
2022-08-22T11:43:32.604Z,45.54
2022-08-22T11:44:29.944Z,44.85
2022-08-22T11:45:30.084Z,48.75
2022-08-22T11:46:30.185Z,45.69
2022-08-22T11:47:30.405Z,43.27
2022-08-22T11:48:30.464Z,44.14
2022-08-22T11:49:32.652Z,42.95
2022-08-22T11:50:30.664Z,42.96
2022-08-22T11:51:34.233Z,43.32
2022-08-22T11:52:31.014Z,44.25
2022-08-22T11:53:31.225Z,44.65
2022-08-22T11:54:31.614Z,46.15
2022-08-22T11:55:33.234Z,45.03
2022-08-22T11:56:31.441Z,44.27
2022-08-22T11:57:31.708Z,42.22
2022-08-22T11:58:31.687Z,43.38
2022-08-22T11:59:31.789Z,44.09
2022-08-22T12:00:31.899Z,43.31
2022-08-22T12:01:34.398Z,43.40
2022-08-22T12:02:32.193Z,44.03
2022-08-22T12:03:32.242Z,43.86
2022-08-22T12:04:32.332Z,44.76
2022-08-22T12:05:32.434Z,44.74
2022-08-22T12:06:32.633Z,42.72
2022-08-22T12:07:32.694Z,43.93
2022-08-22T12:08:32.811Z,45.30
2022-08-22T12:09:33.715Z,43.41
2022-08-22T12:10:33.103Z,45.73
2022-08-22T12:11:33.333Z,43.91
2022-08-22T12:12:33.412Z,43.49
2022-08-22T12:13:34.848Z,45.72
2022-08-22T12:14:33.574Z,42.65
2022-08-22T12:15:33.703Z,40.13
2022-08-22T12:16:33.972Z,40.54
2022-08-22T12:17:55.949Z,40.75
2022-08-22T12:18:35.102Z,40.39
2022-08-22T12:19:34.194Z,45.58
2022-08-22T12:20:34.312Z,40.59
2022-08-22T12:21:38.394Z,40.73
2022-08-22T12:22:34.626Z,42.85
2022-08-22T12:23:48.471Z,41.11
2022-08-22T12:24:35.762Z,41.43
2022-08-22T12:25:34.931Z,40.93
2022-08-22T12:26:35.046Z,41.27
2022-08-22T12:27:35.232Z,41.37
2022-08-22T12:28:35.382Z,41.72
2022-08-22T12:29:40.077Z,43.27
2022-08-22T12:30:36.484Z,40.71
2022-08-22T12:31:35.611Z,41.17
2022-08-22T12:32:36.040Z,44.15
2022-08-22T12:33:35.873Z,40.72
2022-08-22T12:34:36.006Z,42.35
2022-08-22T12:35:37.697Z,40.56
2022-08-22T12:36:36.252Z,41.06
2022-08-22T12:37:52.339Z,42.53
2022-08-22T12:38:38.115Z,40.39
2022-08-22T12:39:36.619Z,39.54
2022-08-22T12:40:36.811Z,38.87
2022-08-22T12:41:36.821Z,40.25
2022-08-22T12:42:37.021Z,40.85
2022-08-22T12:43:42.408Z,41.44
2022-08-22T12:44:38.191Z,40.65
2022-08-22T12:45:37.458Z,41.08
2022-08-22T12:46:37.483Z,40.56
2022-08-22T12:47:38.600Z,43.71
2022-08-22T12:48:37.850Z,40.86
2022-08-22T12:49:37.810Z,44.49
2022-08-22T12:50:37.941Z,43.25
2022-08-22T12:51:38.031Z,44.22
2022-08-22T12:52:38.162Z,42.37